createdAt,value
2022-12-25T00:00:48.680Z,20.26
2022-12-25T00:01:48.710Z,20.26
2022-12-25T00:02:48.908Z,20.26
2022-12-25T00:03:49.084Z,20.27
2022-12-25T00:04:48.959Z,20.27
2022-12-25T00:05:55.179Z,20.27
2022-12-25T00:06:49.101Z,20.26
2022-12-25T00:07:49.180Z,20.26
2022-12-25T00:08:49.263Z,20.26
2022-12-25T00:09:49.336Z,20.26
2022-12-25T00:10:49.423Z,20.26
2022-12-25T00:11:49.557Z,20.26
2022-12-25T00:12:49.608Z,20.26
2022-12-25T00:13:49.688Z,20.26
2022-12-25T00:14:49.761Z,20.27
2022-12-25T00:15:49.879Z,20.27
2022-12-25T00:16:49.981Z,20.27
2022-12-25T00:17:50.042Z,20.27
2022-12-25T00:18:50.100Z,20.27
2022-12-25T00:19:50.168Z,20.27
2022-12-25T00:20:50.260Z,20.27
2022-12-25T00:21:50.322Z,20.27
2022-12-25T00:22:50.427Z,20.27
2022-12-25T00:23:50.526Z,20.27
2022-12-25T00:24:50.608Z,20.27
2022-12-25T00:25:50.701Z,20.28
2022-12-25T00:26:50.793Z,20.28
2022-12-25T00:27:50.878Z,20.28
2022-12-25T00:28:50.955Z,20.28
2022-12-25T00:29:51.045Z,20.28
2022-12-25T00:30:51.085Z,20.28
2022-12-25T00:31:52.122Z,20.28
2022-12-25T00:32:51.242Z,20.28
2022-12-25T00:33:51.330Z,20.28
2022-12-25T00:34:51.399Z,20.28
2022-12-25T00:35:51.504Z,20.28
2022-12-25T00:36:57.539Z,20.28
2022-12-25T00:37:51.636Z,20.28
2022-12-25T00:38:51.719Z,20.28
2022-12-25T00:39:51.810Z,20.28
2022-12-25T00:40:51.888Z,20.28
2022-12-25T00:41:51.993Z,20.28
2022-12-25T00:42:52.103Z,20.28
2022-12-25T00:43:52.168Z,20.28
2022-12-25T00:44:52.262Z,20.28
2022-12-25T00:45:52.359Z,20.28
2022-12-25T00:46:52.583Z,20.28
2022-12-25T00:47:52.518Z,20.29
2022-12-25T00:48:52.565Z,20.29
2022-12-25T00:49:52.646Z,20.29
2022-12-25T00:50:52.729Z,20.29
2022-12-25T00:51:52.825Z,20.29
2022-12-25T00:52:52.882Z,20.29
2022-12-25T00:53:52.987Z,20.29
2022-12-25T00:54:53.033Z,20.29
2022-12-25T00:55:53.134Z,20.29
2022-12-25T00:56:53.228Z,20.29
2022-12-25T00:57:53.298Z,20.29
2022-12-25T00:58:53.405Z,20.29
2022-12-25T00:59:53.513Z,20.29
2022-12-25T01:00:53.599Z,20.29
2022-12-25T01:01:53.820Z,20.29
2022-12-25T01:02:53.922Z,20.29
2022-12-25T01:03:53.818Z,20.29
2022-12-25T01:04:53.922Z,20.29
2022-12-25T01:05:54.012Z,20.29
2022-12-25T01:06:54.082Z,20.30
2022-12-25T01:08:00.229Z,20.29
2022-12-25T01:08:54.253Z,20.29
2022-12-25T01:09:54.333Z,20.29
2022-12-25T01:10:54.416Z,20.29
2022-12-25T01:11:54.538Z,20.29
2022-12-25T01:12:54.593Z,20.29
2022-12-25T01:13:54.679Z,20.29
2022-12-25T01:14:54.770Z,20.29
2022-12-25T01:15:54.938Z,20.29
2022-12-25T01:16:54.990Z,20.30
2022-12-25T01:17:54.996Z,20.30
2022-12-25T01:18:55.068Z,20.30
2022-12-25T01:19:55.141Z,20.30
2022-12-25T01:20:55.218Z,20.30
2022-12-25T01:21:55.330Z,20.30
2022-12-25T01:22:55.405Z,20.30
2022-12-25T01:23:55.491Z,20.30
2022-12-25T01:24:55.536Z,20.30
2022-12-25T01:25:55.743Z,20.30
2022-12-25T01:26:55.708Z,20.30
2022-12-25T01:27:55.804Z,20.30
2022-12-25T01:28:55.903Z,20.30
2022-12-25T01:29:56.004Z,20.30
2022-12-25T01:30:56.063Z,20.31
2022-12-25T01:31:56.269Z,20.31
2022-12-25T01:32:56.239Z,20.31
2022-12-25T01:33:56.283Z,20.31
2022-12-25T01:34:56.622Z,20.31
2022-12-25T01:35:56.464Z,20.31
2022-12-25T01:36:56.503Z,20.30
2022-12-25T01:37:56.586Z,20.30
2022-12-25T01:39:02.629Z,20.30
2022-12-25T01:39:56.725Z,20.30
2022-12-25T01:40:56.811Z,20.30
2022-12-25T01:41:56.913Z,20.30
2022-12-25T01:42:56.989Z,20.30
2022-12-25T01:43:57.087Z,20.30
2022-12-25T01:44:57.143Z,20.30
2022-12-25T01:45:57.290Z,20.31
2022-12-25T01:46:57.385Z,20.31
2022-12-25T01:47:57.449Z,20.31
2022-12-25T01:48:57.489Z,20.31
2022-12-25T01:49:57.570Z,20.31
2022-12-25T01:50:57.655Z,20.30
2022-12-25T01:51:57.741Z,20.30
2022-12-25T01:52:57.828Z,20.30
2022-12-25T01:53:57.902Z,20.31
2022-12-25T01:54:57.996Z,20.31
2022-12-25T01:55:58.073Z,20.31
2022-12-25T01:56:58.175Z,20.31
2022-12-25T01:57:58.260Z,20.31
2022-12-25T01:58:58.340Z,20.31
2022-12-25T01:59:58.395Z,20.31
2022-12-25T02:00:58.534Z,20.31
2022-12-25T02:01:58.694Z,20.31
2022-12-25T02:02:58.746Z,20.31
2022-12-25T02:03:58.709Z,20.31
2022-12-25T02:04:58.783Z,20.31
2022-12-25T02:05:58.874Z,20.31
2022-12-25T02:06:58.955Z,20.31
2022-12-25T02:07:59.034Z,20.31
2022-12-25T02:08:59.122Z,20.31
2022-12-25T02:10:05.276Z,20.32
2022-12-25T02:10:59.261Z,20.31
2022-12-25T02:11:59.333Z,20.31
2022-12-25T02:12:59.415Z,20.31
2022-12-25T02:13:59.513Z,20.31
2022-12-25T02:15:04.937Z,20.31
2022-12-25T02:15:59.659Z,20.31
2022-12-25T02:16:59.732Z,20.30
2022-12-25T02:17:59.786Z,20.31
2022-12-25T02:18:59.904Z,20.31
2022-12-25T02:19:59.930Z,20.31
2022-12-25T02:21:00.018Z,20.32
2022-12-25T02:22:00.124Z,20.32
2022-12-25T02:23:00.201Z,20.32
2022-12-25T02:24:00.264Z,20.31
2022-12-25T02:25:00.349Z,20.32
2022-12-25T02:26:00.415Z,20.32
2022-12-25T02:27:00.517Z,20.32
2022-12-25T02:28:00.601Z,20.32
2022-12-25T02:29:00.699Z,20.31
2022-12-25T02:30:00.776Z,20.31
2022-12-25T02:31:00.861Z,20.32
2022-12-25T02:32:01.053Z,20.32
2022-12-25T02:33:01.023Z,20.32
2022-12-25T02:34:01.105Z,20.32
2022-12-25T02:35:01.158Z,20.32
2022-12-25T02:36:01.237Z,20.32
2022-12-25T02:37:01.339Z,20.32
2022-12-25T02:38:01.447Z,20.32
2022-12-25T02:39:01.554Z,20.32
2022-12-25T02:40:01.630Z,20.32
2022-12-25T02:41:07.679Z,20.32
2022-12-25T02:42:01.792Z,20.32
2022-12-25T02:43:01.867Z,20.31
2022-12-25T02:44:01.941Z,20.31
2022-12-25T02:45:02.137Z,20.31
2022-12-25T02:46:02.164Z,20.31
2022-12-25T02:47:02.183Z,20.32
2022-12-25T02:48:02.274Z,20.32
2022-12-25T02:49:02.376Z,20.32
2022-12-25T02:50:02.482Z,20.32
2022-12-25T02:51:02.537Z,20.32
2022-12-25T02:52:02.630Z,20.32
2022-12-25T02:53:02.693Z,20.32
2022-12-25T02:54:02.772Z,20.32
2022-12-25T02:55:02.882Z,20.32
2022-12-25T02:56:02.952Z,20.32
2022-12-25T02:57:03.009Z,20.32
2022-12-25T02:58:03.094Z,20.33
2022-12-25T02:59:03.162Z,20.33
2022-12-25T03:00:03.250Z,20.33
2022-12-25T03:01:03.362Z,20.32
2022-12-25T03:02:03.654Z,20.32
2022-12-25T03:03:03.516Z,20.33
2022-12-25T03:04:03.577Z,20.33
2022-12-25T03:05:03.679Z,20.33
2022-12-25T03:06:03.794Z,20.33
2022-12-25T03:07:03.887Z,20.33
2022-12-25T03:08:03.946Z,20.33
2022-12-25T03:09:04.069Z,20.33
2022-12-25T03:10:04.128Z,20.33
2022-12-25T03:11:04.200Z,20.33
2022-12-25T03:12:10.282Z,20.33
2022-12-25T03:13:04.384Z,20.33
2022-12-25T03:14:04.446Z,20.33
2022-12-25T03:15:04.536Z,20.33
2022-12-25T03:16:04.608Z,20.33
2022-12-25T03:17:04.701Z,20.33
2022-12-25T03:18:04.772Z,20.33
2022-12-25T03:19:04.842Z,20.33
2022-12-25T03:20:04.897Z,20.33
2022-12-25T03:21:04.966Z,20.34
2022-12-25T03:22:05.032Z,20.34
2022-12-25T03:23:05.140Z,20.34
2022-12-25T03:24:05.215Z,20.34
2022-12-25T03:25:05.301Z,20.34
2022-12-25T03:26:05.383Z,20.34
2022-12-25T03:27:05.472Z,20.34
2022-12-25T03:28:05.560Z,20.34
2022-12-25T03:29:05.681Z,20.34
2022-12-25T03:30:05.744Z,20.34
2022-12-25T03:31:05.884Z,20.34
2022-12-25T03:32:05.885Z,20.34
2022-12-25T03:33:23.244Z,20.34
2022-12-25T03:34:06.041Z,20.34
2022-12-25T03:35:06.553Z,20.34
2022-12-25T03:36:06.212Z,20.34
2022-12-25T03:37:06.288Z,20.34
2022-12-25T03:38:06.369Z,20.34
2022-12-25T03:39:06.474Z,20.35
2022-12-25T03:40:06.562Z,20.35
2022-12-25T03:41:06.621Z,20.35
2022-12-25T03:42:06.724Z,20.35
2022-12-25T03:43:12.781Z,20.36
2022-12-25T03:44:06.891Z,20.35
2022-12-25T03:45:06.977Z,20.35
2022-12-25T03:46:07.094Z,20.35
2022-12-25T03:47:07.113Z,20.35
2022-12-25T03:48:07.178Z,20.35
2022-12-25T03:49:07.242Z,20.35
2022-12-25T03:50:07.300Z,20.35
2022-12-25T03:51:07.404Z,20.35
2022-12-25T03:52:07.505Z,20.35
2022-12-25T03:53:07.546Z,20.36
2022-12-25T03:54:07.655Z,20.36
2022-12-25T03:55:07.733Z,20.36
2022-12-25T03:56:07.817Z,20.35
2022-12-25T03:57:07.901Z,20.35
2022-12-25T03:58:07.991Z,20.35
2022-12-25T03:59:08.037Z,20.35
2022-12-25T04:00:08.112Z,20.36
2022-12-25T04:01:08.262Z,20.36
2022-12-25T04:02:08.450Z,20.36
2022-12-25T04:03:08.404Z,20.35
2022-12-25T04:04:08.488Z,20.35
2022-12-25T04:05:08.558Z,20.35
2022-12-25T04:06:08.659Z,20.36
2022-12-25T04:07:08.739Z,20.36
2022-12-25T04:08:08.828Z,20.36
2022-12-25T04:09:08.905Z,20.36
2022-12-25T04:10:08.986Z,20.36
2022-12-25T04:11:09.044Z,20.36
2022-12-25T04:12:09.147Z,20.36
2022-12-25T04:13:09.235Z,20.36
2022-12-25T04:14:15.288Z,20.36
2022-12-25T04:15:09.396Z,20.36
2022-12-25T04:16:09.560Z,20.35
2022-12-25T04:17:09.548Z,20.35
2022-12-25T04:18:09.648Z,20.35
2022-12-25T04:19:09.727Z,20.35
2022-12-25T04:20:09.827Z,20.36
2022-12-25T04:21:09.909Z,20.36
2022-12-25T04:22:10.019Z,20.36
2022-12-25T04:23:10.102Z,20.36
2022-12-25T04:24:10.160Z,20.36
2022-12-25T04:25:10.344Z,20.36
2022-12-25T04:26:10.355Z,20.36
2022-12-25T04:27:10.432Z,20.36
2022-12-25T04:28:10.522Z,20.36
2022-12-25T04:29:10.596Z,20.37
2022-12-25T04:30:10.683Z,20.37
2022-12-25T04:31:10.815Z,20.37
2022-12-25T04:32:10.875Z,20.37
2022-12-25T04:33:10.941Z,20.37
2022-12-25T04:34:11.051Z,20.37
2022-12-25T04:35:11.111Z,20.37
2022-12-25T04:36:11.206Z,20.37
2022-12-25T04:37:11.281Z,20.37
2022-12-25T04:38:11.361Z,20.37
2022-12-25T04:39:11.445Z,20.37
2022-12-25T04:40:11.540Z,20.37
2022-12-25T04:41:11.588Z,20.37
2022-12-25T04:42:11.676Z,20.37
2022-12-25T04:43:11.776Z,20.37
2022-12-25T04:44:11.838Z,20.37
2022-12-25T04:45:18.359Z,20.37
2022-12-25T04:46:12.028Z,20.37
2022-12-25T04:47:12.078Z,20.37
2022-12-25T04:48:12.158Z,20.36
2022-12-25T04:49:12.236Z,20.37
2022-12-25T04:50:12.331Z,20.37
2022-12-25T04:51:12.485Z,20.37
2022-12-25T04:52:12.484Z,20.37
2022-12-25T04:53:12.561Z,20.37
2022-12-25T04:54:12.649Z,20.37
2022-12-25T04:55:12.729Z,20.37
2022-12-25T04:56:12.828Z,20.37
2022-12-25T04:57:12.864Z,20.37
2022-12-25T04:58:12.944Z,20.37
2022-12-25T04:59:13.044Z,20.37
2022-12-25T05:00:13.159Z,20.37
2022-12-25T05:01:13.317Z,20.37
2022-12-25T05:02:13.501Z,20.37
2022-12-25T05:03:13.489Z,20.37
2022-12-25T05:04:13.471Z,20.37
2022-12-25T05:05:13.520Z,20.37
2022-12-25T05:06:13.600Z,20.37
2022-12-25T05:07:13.709Z,20.37
2022-12-25T05:08:13.756Z,20.37
2022-12-25T05:09:13.845Z,20.37
2022-12-25T05:10:13.933Z,20.38
2022-12-25T05:11:13.994Z,20.38
2022-12-25T05:12:14.082Z,20.38
2022-12-25T05:13:14.197Z,20.38
2022-12-25T05:14:14.263Z,20.38
2022-12-25T05:15:14.331Z,20.38
2022-12-25T05:16:20.509Z,20.38
2022-12-25T05:17:14.497Z,20.37
2022-12-25T05:18:14.598Z,20.37
2022-12-25T05:19:14.706Z,20.37
2022-12-25T05:20:14.744Z,20.37
2022-12-25T05:21:14.854Z,20.37
2022-12-25T05:22:14.956Z,20.37
2022-12-25T05:23:15.025Z,20.37
2022-12-25T05:24:15.114Z,20.37
2022-12-25T05:25:15.187Z,20.37
2022-12-25T05:26:15.248Z,20.37
2022-12-25T05:27:15.325Z,20.37
2022-12-25T05:28:15.393Z,20.37
2022-12-25T05:29:15.473Z,20.38
2022-12-25T05:30:15.532Z,20.38
2022-12-25T05:31:15.631Z,20.38
2022-12-25T05:32:15.688Z,20.37
2022-12-25T05:33:15.780Z,20.37
2022-12-25T05:34:15.883Z,20.37
2022-12-25T05:35:15.988Z,20.38
2022-12-25T05:36:16.051Z,20.38
2022-12-25T05:37:16.126Z,20.38
2022-12-25T05:38:16.197Z,20.38
2022-12-25T05:39:16.298Z,20.38
2022-12-25T05:40:16.387Z,20.38
2022-12-25T05:41:16.470Z,20.38
2022-12-25T05:42:16.530Z,20.38
2022-12-25T05:43:16.608Z,20.38
2022-12-25T05:44:16.699Z,20.38
2022-12-25T05:45:16.780Z,20.38
2022-12-25T05:46:16.952Z,20.38
2022-12-25T05:47:23.436Z,20.38
2022-12-25T05:48:16.998Z,20.38
2022-12-25T05:49:17.083Z,20.38
2022-12-25T05:50:17.160Z,20.38
2022-12-25T05:51:17.240Z,20.38
2022-12-25T05:52:17.301Z,20.38
2022-12-25T05:53:17.879Z,20.38
2022-12-25T05:54:17.471Z,20.38
2022-12-25T05:55:17.543Z,20.38
2022-12-25T05:56:17.629Z,20.38
2022-12-25T05:57:17.713Z,20.38
2022-12-25T05:58:17.774Z,20.38
2022-12-25T05:59:17.869Z,20.38
2022-12-25T06:00:17.931Z,20.39
2022-12-25T06:01:18.088Z,20.39
2022-12-25T06:02:18.225Z,20.39
2022-12-25T06:03:18.323Z,20.38
2022-12-25T06:04:18.302Z,20.38
2022-12-25T06:05:18.336Z,20.38
2022-12-25T06:06:18.404Z,20.39
2022-12-25T06:07:18.496Z,20.39
2022-12-25T06:08:18.577Z,20.39
2022-12-25T06:09:18.688Z,20.39
2022-12-25T06:10:18.767Z,20.39
2022-12-25T06:11:18.836Z,20.39
2022-12-25T06:12:18.923Z,20.39
2022-12-25T06:13:19.001Z,20.39
2022-12-25T06:14:19.088Z,20.39
2022-12-25T06:15:19.176Z,20.39
2022-12-25T06:16:19.351Z,20.39
2022-12-25T06:17:19.346Z,20.39
2022-12-25T06:18:25.415Z,20.39
2022-12-25T06:19:19.539Z,20.39
2022-12-25T06:20:19.613Z,20.39
2022-12-25T06:21:19.714Z,20.39
2022-12-25T06:22:19.801Z,20.39
2022-12-25T06:23:19.962Z,20.39
2022-12-25T06:24:21.582Z,20.39
2022-12-25T06:25:20.045Z,20.39
2022-12-25T06:26:20.112Z,20.39
2022-12-25T06:27:20.211Z,20.39
2022-12-25T06:28:20.286Z,20.39
2022-12-25T06:29:20.388Z,20.39
2022-12-25T06:30:20.471Z,20.39
2022-12-25T06:31:20.586Z,20.39
2022-12-25T06:32:20.643Z,20.39
2022-12-25T06:33:20.689Z,20.40
2022-12-25T06:34:20.770Z,20.40
2022-12-25T06:35:20.855Z,20.40
2022-12-25T06:36:20.943Z,20.40
2022-12-25T06:37:21.054Z,20.40
2022-12-25T06:38:21.154Z,20.40
2022-12-25T06:39:21.224Z,20.40
2022-12-25T06:40:21.299Z,20.40
2022-12-25T06:41:21.362Z,20.40
2022-12-25T06:42:21.458Z,20.40
2022-12-25T06:43:21.531Z,20.40
2022-12-25T06:44:21.595Z,20.40
2022-12-25T06:45:21.687Z,20.40
2022-12-25T06:46:21.869Z,20.41
2022-12-25T06:47:21.855Z,20.40
2022-12-25T06:48:21.947Z,20.41
2022-12-25T06:49:28.404Z,20.41
2022-12-25T06:50:22.123Z,20.40
2022-12-25T06:51:22.192Z,20.40
2022-12-25T06:52:22.263Z,20.40
2022-12-25T06:53:22.369Z,20.40
2022-12-25T06:54:22.433Z,20.40
2022-12-25T06:55:22.527Z,20.40
2022-12-25T06:56:22.581Z,20.40
2022-12-25T06:57:22.667Z,20.41
2022-12-25T06:58:22.755Z,20.41
2022-12-25T06:59:22.844Z,20.41
2022-12-25T07:00:22.959Z,20.41
2022-12-25T07:01:23.191Z,20.41
2022-12-25T07:02:23.295Z,20.41
2022-12-25T07:03:23.195Z,20.41
2022-12-25T07:04:23.249Z,20.41
2022-12-25T07:05:23.387Z,20.41
2022-12-25T07:06:23.421Z,20.42
2022-12-25T07:07:23.538Z,20.42
2022-12-25T07:08:23.590Z,20.42
2022-12-25T07:09:23.682Z,20.42
2022-12-25T07:10:23.759Z,20.42
2022-12-25T07:11:23.851Z,20.42
2022-12-25T07:12:23.945Z,20.42
2022-12-25T07:13:26.150Z,20.42
2022-12-25T07:14:24.788Z,20.42
2022-12-25T07:15:24.179Z,20.42
2022-12-25T07:16:24.340Z,20.42
2022-12-25T07:17:24.398Z,20.42
2022-12-25T07:18:24.483Z,20.42
2022-12-25T07:19:24.549Z,20.43
2022-12-25T07:20:30.590Z,20.43
2022-12-25T07:21:24.703Z,20.43
2022-12-25T07:22:24.802Z,20.42
2022-12-25T07:23:24.883Z,20.42
2022-12-25T07:24:24.994Z,20.43
2022-12-25T07:25:25.041Z,20.43
2022-12-25T07:26:25.147Z,20.43
2022-12-25T07:27:25.227Z,20.43
2022-12-25T07:28:25.318Z,20.44
2022-12-25T07:29:25.411Z,20.44
2022-12-25T07:30:25.496Z,20.44
2022-12-25T07:31:25.576Z,20.44
2022-12-25T07:32:25.671Z,20.45
2022-12-25T07:33:25.732Z,20.45
2022-12-25T07:34:25.829Z,20.45
2022-12-25T07:35:25.928Z,20.45
2022-12-25T07:36:26.028Z,20.45
2022-12-25T07:37:26.070Z,20.45
2022-12-25T07:38:26.139Z,20.46
2022-12-25T07:39:26.230Z,20.46
2022-12-25T07:40:26.330Z,20.46
2022-12-25T07:41:26.397Z,20.46
2022-12-25T07:42:26.489Z,20.47
2022-12-25T07:43:26.566Z,20.47
2022-12-25T07:44:26.643Z,20.47
2022-12-25T07:45:26.771Z,20.47
2022-12-25T07:46:26.923Z,20.47
2022-12-25T07:47:26.895Z,20.47
2022-12-25T07:48:27.002Z,20.47
2022-12-25T07:49:27.060Z,20.48
2022-12-25T07:50:27.127Z,20.48
2022-12-25T07:51:33.178Z,20.48
2022-12-25T07:52:27.270Z,20.48
2022-12-25T07:53:27.360Z,20.48
2022-12-25T07:54:27.473Z,20.48
2022-12-25T07:55:27.535Z,20.48
2022-12-25T07:56:27.648Z,20.48
2022-12-25T07:57:27.737Z,20.49
2022-12-25T07:58:27.836Z,20.49
2022-12-25T07:59:27.897Z,20.49
2022-12-25T08:00:27.976Z,20.50
2022-12-25T08:01:28.251Z,20.50
2022-12-25T08:02:28.515Z,20.51
2022-12-25T08:03:28.363Z,20.51
2022-12-25T08:04:28.282Z,20.51
2022-12-25T08:05:28.371Z,20.51
2022-12-25T08:06:28.474Z,20.51
2022-12-25T08:07:28.569Z,20.51
2022-12-25T08:08:28.629Z,20.51
2022-12-25T08:09:28.721Z,20.51
2022-12-25T08:10:28.816Z,20.52
2022-12-25T08:11:28.903Z,20.52
2022-12-25T08:12:29.013Z,20.52
2022-12-25T08:13:29.148Z,20.52
2022-12-25T08:14:29.172Z,20.52
2022-12-25T08:15:29.249Z,20.52
2022-12-25T08:16:29.389Z,20.52
2022-12-25T08:17:29.414Z,20.52
2022-12-25T08:18:30.385Z,20.52
2022-12-25T08:19:29.601Z,20.53
2022-12-25T08:20:29.691Z,20.53
2022-12-25T08:21:29.786Z,20.53
2022-12-25T08:22:35.852Z,20.53
2022-12-25T08:23:29.963Z,20.53
2022-12-25T08:24:30.061Z,20.53
2022-12-25T08:25:30.168Z,20.54
2022-12-25T08:26:30.228Z,20.54
2022-12-25T08:27:30.298Z,20.55
2022-12-25T08:28:30.385Z,20.55
2022-12-25T08:29:30.497Z,20.55
2022-12-25T08:30:30.599Z,20.55
2022-12-25T08:31:30.805Z,20.56
2022-12-25T08:32:30.740Z,20.56
2022-12-25T08:33:30.824Z,20.56
2022-12-25T08:34:30.899Z,20.56
2022-12-25T08:35:30.984Z,20.57
2022-12-25T08:36:31.078Z,20.57
2022-12-25T08:37:31.151Z,20.57
2022-12-25T08:38:31.244Z,20.58
2022-12-25T08:39:31.327Z,20.58
2022-12-25T08:40:31.415Z,20.58
2022-12-25T08:41:31.532Z,20.59
2022-12-25T08:42:31.608Z,20.59
2022-12-25T08:43:31.683Z,20.59
2022-12-25T08:44:31.772Z,20.59
2022-12-25T08:45:35.162Z,20.60
2022-12-25T08:46:32.008Z,20.60
2022-12-25T08:47:32.017Z,20.60
2022-12-25T08:48:32.113Z,20.61
2022-12-25T08:49:32.189Z,20.61
2022-12-25T08:50:32.267Z,20.62
2022-12-25T08:51:32.362Z,20.62
2022-12-25T08:52:32.431Z,20.62
2022-12-25T08:53:38.986Z,20.62
2022-12-25T08:54:32.566Z,20.63
2022-12-25T08:55:32.645Z,20.63
2022-12-25T08:56:32.738Z,20.63
2022-12-25T08:57:32.829Z,20.63
2022-12-25T08:58:32.923Z,20.64
2022-12-25T08:59:33.018Z,20.64
2022-12-25T09:00:33.065Z,20.65
2022-12-25T09:01:33.292Z,20.65
2022-12-25T09:02:33.387Z,20.65
2022-12-25T09:03:33.525Z,20.65
2022-12-25T09:04:33.393Z,20.66
2022-12-25T09:05:33.497Z,20.66
2022-12-25T09:06:33.579Z,20.67
2022-12-25T09:07:33.698Z,20.67
2022-12-25T09:08:33.778Z,20.68
2022-12-25T09:09:33.808Z,20.68
2022-12-25T09:10:33.986Z,20.69
2022-12-25T09:11:33.976Z,20.70
2022-12-25T09:12:34.028Z,20.70
2022-12-25T09:13:34.106Z,20.71
2022-12-25T09:14:34.170Z,20.71
2022-12-25T09:15:34.349Z,20.72
2022-12-25T09:16:34.369Z,20.72
2022-12-25T09:17:34.459Z,20.72
2022-12-25T09:18:34.540Z,20.72
2022-12-25T09:19:34.625Z,20.72
2022-12-25T09:20:34.707Z,20.72
2022-12-25T09:21:34.808Z,20.73
2022-12-25T09:22:34.870Z,20.73
2022-12-25T09:23:34.960Z,20.74
2022-12-25T09:24:41.000Z,20.74
2022-12-25T09:25:35.133Z,20.74
2022-12-25T09:26:35.214Z,20.74
2022-12-25T09:27:35.295Z,20.74
2022-12-25T09:28:35.394Z,20.74
2022-12-25T09:29:35.575Z,20.74
2022-12-25T09:30:35.622Z,20.74
2022-12-25T09:31:35.630Z,20.74
2022-12-25T09:32:35.697Z,20.75
2022-12-25T09:33:35.769Z,20.75
2022-12-25T09:34:35.848Z,20.75
2022-12-25T09:35:35.950Z,20.75
2022-12-25T09:36:35.995Z,20.75
2022-12-25T09:37:36.125Z,20.75
2022-12-25T09:38:36.190Z,20.75
2022-12-25T09:39:38.255Z,20.75
2022-12-25T09:40:36.390Z,20.75
2022-12-25T09:41:36.494Z,20.75
2022-12-25T09:42:36.552Z,20.75
2022-12-25T09:43:36.647Z,20.75
2022-12-25T09:44:36.733Z,20.75
2022-12-25T09:45:36.842Z,20.75
2022-12-25T09:46:37.491Z,20.75
2022-12-25T09:47:37.021Z,20.75
2022-12-25T09:48:37.088Z,20.75
2022-12-25T09:49:37.166Z,20.75
2022-12-25T09:50:37.238Z,20.76
2022-12-25T09:51:37.315Z,20.76
2022-12-25T09:52:37.407Z,20.76
2022-12-25T09:53:37.494Z,20.77
2022-12-25T09:54:37.543Z,20.77
2022-12-25T09:55:43.620Z,20.78
2022-12-25T09:56:37.707Z,20.78
2022-12-25T09:57:37.793Z,20.78
2022-12-25T09:58:37.876Z,20.78
2022-12-25T09:59:37.999Z,20.78
2022-12-25T10:00:38.077Z,20.78
2022-12-25T10:01:38.273Z,20.78
2022-12-25T10:02:38.508Z,20.79
2022-12-25T10:03:38.381Z,20.79
2022-12-25T10:04:40.952Z,20.79
2022-12-25T10:05:38.497Z,20.79
2022-12-25T10:06:38.556Z,20.79
2022-12-25T10:07:38.645Z,20.79
2022-12-25T10:08:38.746Z,20.80
2022-12-25T10:09:38.821Z,20.80
2022-12-25T10:10:38.906Z,20.80
2022-12-25T10:11:38.995Z,20.81
2022-12-25T10:12:39.081Z,20.81
2022-12-25T10:13:39.137Z,20.81
2022-12-25T10:14:39.223Z,20.82
2022-12-25T10:15:45.273Z,20.82
2022-12-25T10:16:39.503Z,20.82
2022-12-25T10:17:39.501Z,20.82
2022-12-25T10:18:39.547Z,20.82
2022-12-25T10:19:39.641Z,20.82
2022-12-25T10:20:39.717Z,20.83
2022-12-25T10:21:39.803Z,20.83
2022-12-25T10:22:39.909Z,20.84
2022-12-25T10:23:39.962Z,20.84
2022-12-25T10:24:40.027Z,20.84
2022-12-25T10:25:40.115Z,20.85
2022-12-25T10:26:46.153Z,20.85
2022-12-25T10:27:40.280Z,20.85
2022-12-25T10:28:40.352Z,20.85
2022-12-25T10:29:40.451Z,20.85
2022-12-25T10:30:40.559Z,20.85
2022-12-25T10:31:40.649Z,20.85
2022-12-25T10:32:40.720Z,20.85
2022-12-25T10:33:40.806Z,20.84
2022-12-25T10:34:40.914Z,20.85
2022-12-25T10:35:40.961Z,20.85
2022-12-25T10:36:41.064Z,20.85
2022-12-25T10:37:41.170Z,20.85
2022-12-25T10:38:41.232Z,20.85
2022-12-25T10:39:46.343Z,20.85
2022-12-25T10:40:41.430Z,20.85
2022-12-25T10:41:41.471Z,20.86
2022-12-25T10:42:41.563Z,20.86
2022-12-25T10:43:41.637Z,20.86
2022-12-25T10:44:41.715Z,20.87
2022-12-25T10:45:41.865Z,20.87
2022-12-25T10:46:41.929Z,20.87
2022-12-25T10:47:42.324Z,20.88
2022-12-25T10:48:42.071Z,20.88
2022-12-25T10:49:42.148Z,20.88
2022-12-25T10:50:42.268Z,20.88
2022-12-25T10:51:42.356Z,20.88
2022-12-25T10:52:42.391Z,20.87
2022-12-25T10:53:42.485Z,20.87
2022-12-25T10:54:42.533Z,20.86
2022-12-25T10:55:42.643Z,20.86
2022-12-25T10:56:42.717Z,20.86
2022-12-25T10:57:48.745Z,20.85
2022-12-25T10:58:42.833Z,20.84
2022-12-25T10:59:42.917Z,20.83
2022-12-25T11:00:43.012Z,20.83
2022-12-25T11:01:43.158Z,20.82
2022-12-25T11:02:43.380Z,20.82
2022-12-25T11:03:43.354Z,20.81
2022-12-25T11:04:43.372Z,20.81
2022-12-25T11:05:43.415Z,20.81
2022-12-25T11:06:43.498Z,20.81
2022-12-25T11:07:43.603Z,20.81
2022-12-25T11:08:43.680Z,20.81
2022-12-25T11:09:43.782Z,20.81
2022-12-25T11:10:44.193Z,20.81
2022-12-25T11:11:43.972Z,20.81
2022-12-25T11:12:44.058Z,20.80
2022-12-25T11:13:44.175Z,20.80
2022-12-25T11:14:44.233Z,20.80
2022-12-25T11:15:44.368Z,20.80
2022-12-25T11:16:44.510Z,20.80
2022-12-25T11:17:44.448Z,20.80
2022-12-25T11:18:44.545Z,20.80
2022-12-25T11:19:44.615Z,20.80
2022-12-25T11:20:47.303Z,20.79
2022-12-25T11:21:44.795Z,20.79
2022-12-25T11:22:44.887Z,20.79
2022-12-25T11:23:44.960Z,20.79
2022-12-25T11:24:45.027Z,20.79
2022-12-25T11:25:45.095Z,20.79
2022-12-25T11:26:45.163Z,20.79
2022-12-25T11:27:48.982Z,20.78
2022-12-25T11:28:51.330Z,20.78
2022-12-25T11:29:45.443Z,20.77
2022-12-25T11:30:45.540Z,20.77
2022-12-25T11:31:45.604Z,20.76
2022-12-25T11:32:45.682Z,20.76
2022-12-25T11:33:45.775Z,20.76
2022-12-25T11:34:45.859Z,20.76
2022-12-25T11:35:46.054Z,20.76
2022-12-25T11:36:46.040Z,20.76
2022-12-25T11:37:46.114Z,20.76
2022-12-25T11:38:46.197Z,20.76
2022-12-25T11:39:46.306Z,20.76
2022-12-25T11:40:46.336Z,20.76
2022-12-25T11:41:46.443Z,20.76
2022-12-25T11:42:46.544Z,20.76
2022-12-25T11:43:46.613Z,20.76
2022-12-25T11:44:46.706Z,20.76
2022-12-25T11:45:46.770Z,20.76
2022-12-25T11:46:46.879Z,20.77
2022-12-25T11:47:46.925Z,20.77
2022-12-25T11:48:47.035Z,20.77
2022-12-25T11:49:50.062Z,20.77
2022-12-25T11:50:47.179Z,20.76
2022-12-25T11:51:47.253Z,20.76
2022-12-25T11:52:47.327Z,20.76
2022-12-25T11:53:47.402Z,20.76
2022-12-25T11:54:47.493Z,20.76
2022-12-25T11:55:47.543Z,20.76
2022-12-25T11:56:47.643Z,20.76
2022-12-25T11:57:47.734Z,20.76
2022-12-25T11:58:47.808Z,20.76
2022-12-25T11:59:54.088Z,20.76
2022-12-25T12:00:47.961Z,20.75
2022-12-25T12:01:48.230Z,20.75
2022-12-25T12:02:48.221Z,20.74
2022-12-25T12:03:48.260Z,20.74
2022-12-25T12:04:48.282Z,20.74
2022-12-25T12:05:48.383Z,20.74
2022-12-25T12:06:48.449Z,20.74
2022-12-25T12:07:48.540Z,20.75
2022-12-25T12:08:48.624Z,20.75
2022-12-25T12:09:48.707Z,20.75
2022-12-25T12:10:48.811Z,20.76
2022-12-25T12:11:48.866Z,20.76
2022-12-25T12:12:49.345Z,20.76
2022-12-25T12:13:49.028Z,20.76
2022-12-25T12:14:49.119Z,20.76
2022-12-25T12:15:49.211Z,20.76
2022-12-25T12:16:49.342Z,20.76
2022-12-25T12:17:49.354Z,20.76
2022-12-25T12:18:50.825Z,20.77
2022-12-25T12:19:49.531Z,20.77
2022-12-25T12:20:49.613Z,20.77
2022-12-25T12:21:49.720Z,20.77
2022-12-25T12:22:49.762Z,20.77
2022-12-25T12:23:49.874Z,20.78
2022-12-25T12:24:49.952Z,20.78
2022-12-25T12:25:50.068Z,20.78
2022-12-25T12:26:50.135Z,20.78
2022-12-25T12:27:50.221Z,20.78
2022-12-25T12:28:50.276Z,20.78
2022-12-25T12:29:50.364Z,20.78
2022-12-25T12:30:56.464Z,20.78
2022-12-25T12:31:50.620Z,20.78
2022-12-25T12:32:50.660Z,20.78
2022-12-25T12:33:50.728Z,20.78
2022-12-25T12:34:50.800Z,20.78
2022-12-25T12:35:50.897Z,20.78
2022-12-25T12:36:50.967Z,20.77
2022-12-25T12:37:51.041Z,20.77
2022-12-25T12:38:51.148Z,20.77
2022-12-25T12:39:51.220Z,20.77
2022-12-25T12:40:51.288Z,20.77
2022-12-25T12:41:51.396Z,20.77
2022-12-25T12:42:51.464Z,20.77
2022-12-25T12:43:51.585Z,20.77
2022-12-25T12:44:51.645Z,20.77
2022-12-25T12:45:51.803Z,20.77
2022-12-25T12:46:51.785Z,20.77
2022-12-25T12:47:51.876Z,20.77
2022-12-25T12:48:51.962Z,20.77
2022-12-25T12:49:52.075Z,20.77
2022-12-25T12:50:52.126Z,20.77
2022-12-25T12:51:52.185Z,20.77
2022-12-25T12:52:52.302Z,20.77
2022-12-25T12:53:52.348Z,20.77